sensor_id;sensor_type;location;lat;lon;timestamp;pressure;altitude;pressure_sealevel;temperature;humidity
51123;BME280;37162;41.724;13.346;2022-10-16T00:00:43;97144.19;;;20.27;61.54
51123;BME280;37162;41.724;13.346;2022-10-16T00:03:09;97139.03;;;20.25;61.46
51123;BME280;37162;41.724;13.346;2022-10-16T00:05:40;97137.97;;;20.26;61.39
51123;BME280;37162;41.724;13.346;2022-10-16T00:08:06;97145.25;;;20.26;61.45
51123;BME280;37162;41.724;13.346;2022-10-16T00:10:31;97141.75;;;20.25;61.43
51123;BME280;37162;41.724;13.346;2022-10-16T00:12:57;97144.44;;;20.25;61.49
51123;BME280;37162;41.724;13.346;2022-10-16T00:15:22;97146.31;;;20.25;61.53
51123;BME280;37162;41.724;13.346;2022-10-16T00:17:48;97152.53;;;20.25;61.99
51123;BME280;37162;41.724;13.346;2022-10-16T00:20:13;97144.69;;;20.24;62.16
51123;BME280;37162;41.724;13.346;2022-10-16T00:22:38;97148.44;;;20.23;62.33
51123;BME280;37162;41.724;13.346;2022-10-16T00:25:05;97146.81;;;20.22;62.21
51123;BME280;37162;41.724;13.346;2022-10-16T00:27:30;97152.44;;;20.20;62.23
51123;BME280;37162;41.724;13.346;2022-10-16T00:29:56;97147.88;;;20.21;62.41
51123;BME280;37162;41.724;13.346;2022-10-16T00:32:21;97151.84;;;20.18;62.14
51123;BME280;37162;41.724;13.346;2022-10-16T00:34:46;97147.31;;;20.19;61.85
51123;BME280;37162;41.724;13.346;2022-10-16T00:37:13;97145.66;;;20.17;61.72
51123;BME280;37162;41.724;13.346;2022-10-16T00:39:38;97149.16;;;20.18;61.66
51123;BME280;37162;41.724;13.346;2022-10-16T00:42:04;97141.91;;;20.19;61.56
51123;BME280;37162;41.724;13.346;2022-10-16T00:44:51;97143.53;;;20.20;61.61
51123;BME280;37162;41.724;13.346;2022-10-16T00:47:32;97146.25;;;20.20;61.57
51123;BME280;37162;41.724;13.346;2022-10-16T00:50:26;97142.72;;;20.19;61.50
51123;BME280;37162;41.724;13.346;2022-10-16T00:52:53;97142.94;;;20.17;61.47
51123;BME280;37162;41.724;13.346;2022-10-16T00:55:19;97130.19;;;20.13;61.39
51123;BME280;37162;41.724;13.346;2022-10-16T00:57:45;97131.94;;;20.19;61.01
51123;BME280;37162;41.724;13.346;2022-10-16T01:00:14;97138.16;;;20.20;61.36
51123;BME280;37162;41.724;13.346;2022-10-16T01:02:41;97142.47;;;20.21;61.37
51123;BME280;37162;41.724;13.346;2022-10-16T01:05:06;97138.97;;;20.20;61.33
51123;BME280;37162;41.724;13.346;2022-10-16T01:17:56;97142.72;;;20.19;61.25
51123;BME280;37162;41.724;13.346;2022-10-16T01:21:06;97141.91;;;20.19;61.18
51123;BME280;37162;41.724;13.346;2022-10-16T01:31:11;97129.16;;;20.14;61.43
51123;BME280;37162;41.724;13.346;2022-10-16T01:33:46;97122.63;;;20.10;61.44
51123;BME280;37162;41.724;13.346;2022-10-16T01:36:20;97140.03;;;20.19;61.41
51123;BME280;37162;41.724;13.346;2022-10-16T01:38:49;97140.03;;;20.19;61.30
51123;BME280;37162;41.724;13.346;2022-10-16T01:41:32;97142.13;;;20.17;61.21
51123;BME280;37162;41.724;13.346;2022-10-16T01:44:04;97141.06;;;20.18;61.14
51123;BME280;37162;41.724;13.346;2022-10-16T01:46:32;97148.34;;;20.17;61.10
51123;BME280;37162;41.724;13.346;2022-10-16T01:49:00;97146.47;;;20.18;61.02
51123;BME280;37162;41.724;13.346;2022-10-16T01:51:28;97126.34;;;20.09;60.95
51123;BME280;37162;41.724;13.346;2022-10-16T01:53:57;97134.84;;;20.17;61.00
51123;BME280;37162;41.724;13.346;2022-10-16T01:56:25;97133.81;;;20.19;60.96
51123;BME280;37162;41.724;13.346;2022-10-16T01:59:01;97137.56;;;20.17;60.99
51123;BME280;37162;41.724;13.346;2022-10-16T02:01:31;97139.22;;;20.19;61.07
51123;BME280;37162;41.724;13.346;2022-10-16T02:04:03;97139.44;;;20.17;61.13
51123;BME280;37162;41.724;13.346;2022-10-16T02:06:32;97140.25;;;20.17;61.24
51123;BME280;37162;41.724;13.346;2022-10-16T02:08:58;97130.19;;;20.13;61.41
51123;BME280;37162;41.724;13.346;2022-10-16T02:11:24;97135.69;;;20.18;61.27
51123;BME280;37162;41.724;13.346;2022-10-16T02:14:00;97135.69;;;20.18;61.29
51123;BME280;37162;41.724;13.346;2022-10-16T02:16:39;97142.94;;;20.17;61.14
51123;BME280;37162;41.724;13.346;2022-10-16T02:19:05;97142.13;;;20.17;61.06
51123;BME280;37162;41.724;13.346;2022-10-16T02:21:54;97144.84;;;20.17;60.89
51123;BME280;37162;41.724;13.346;2022-10-16T02:27:07;97133.22;;;20.16;60.87
51123;BME280;37162;41.724;13.346;2022-10-16T02:29:40;97137.81;;;20.16;60.76
51123;BME280;37162;41.724;13.346;2022-10-16T02:32:10;97129.03;;;20.09;60.77
51123;BME280;37162;41.724;13.346;2022-10-16T02:34:39;97137.81;;;20.16;60.86
51123;BME280;37162;41.724;13.346;2022-10-16T02:37:06;97142.41;;;20.15;60.64
51123;BME280;37162;41.724;13.346;2022-10-16T02:39:33;97141.56;;;20.15;60.76
51123;BME280;37162;41.724;13.346;2022-10-16T02:41:58;97136.66;;;20.12;60.68
51123;BME280;37162;41.724;13.346;2022-10-16T02:44:24;97138.06;;;20.14;60.76
51123;BME280;37162;41.724;13.346;2022-10-16T02:46:49;97145.56;;;20.12;60.87
51123;BME280;37162;41.724;13.346;2022-10-16T02:49:15;97146.97;;;20.15;60.92
51123;BME280;37162;41.724;13.346;2022-10-16T02:51:40;97149.66;;;20.15;61.13
51123;BME280;37162;41.724;13.346;2022-10-16T02:54:06;97146.97;;;20.15;60.97
51123;BME280;37162;41.724;13.346;2022-10-16T02:56:31;97140.91;;;20.08;60.97
51123;BME280;37162;41.724;13.346;2022-10-16T02:58:57;97160.47;;;20.15;60.90
51123;BME280;37162;41.724;13.346;2022-10-16T03:01:23;97156.94;;;20.14;60.90
51123;BME280;37162;41.724;13.346;2022-10-16T03:03:49;97152.59;;;20.13;60.72
51123;BME280;37162;41.724;13.346;2022-10-16T03:06:14;97161.53;;;20.14;60.66
51123;BME280;37162;41.724;13.346;2022-10-16T03:08:40;97162.56;;;20.13;60.67
51123;BME280;37162;41.724;13.346;2022-10-16T03:11:05;97160.69;;;20.13;60.62
51123;BME280;37162;41.724;13.346;2022-10-16T03:13:31;97161.53;;;20.14;60.54
51123;BME280;37162;41.724;13.346;2022-10-16T03:15:56;97162.56;;;20.13;60.58
51123;BME280;37162;41.724;13.346;2022-10-16T03:18:21;97165.25;;;20.13;60.55
51123;BME280;37162;41.724;13.346;2022-10-16T03:20:47;97165.53;;;20.11;60.51
51123;BME280;37162;41.724;13.346;2022-10-16T03:23:12;97166.34;;;20.12;60.31
51123;BME280;37162;41.724;13.346;2022-10-16T03:25:38;97160.38;;;20.10;60.35
51123;BME280;37162;41.724;13.346;2022-10-16T03:28:03;97162.47;;;20.08;60.39
51123;BME280;37162;41.724;13.346;2022-10-16T03:30:29;97165.78;;;20.10;60.44
51123;BME280;37162;41.724;13.346;2022-10-16T03:32:54;97152.69;;;20.02;60.52
51123;BME280;37162;41.724;13.346;2022-10-16T03:35:23;97155.38;;;20.02;60.76
51123;BME280;37162;41.724;13.346;2022-10-16T03:37:49;97176.56;;;20.10;60.75
51123;BME280;37162;41.724;13.346;2022-10-16T03:40:16;97175.75;;;20.09;60.76
51123;BME280;37162;41.724;13.346;2022-10-16T03:42:44;97167.06;;;20.07;60.63
51123;BME280;37162;41.724;13.346;2022-10-16T03:45:10;97161.84;;;20.01;60.49
51123;BME280;37162;41.724;13.346;2022-10-16T03:47:36;97177.03;;;20.07;60.34
51123;BME280;37162;41.724;13.346;2022-10-16T03:50:03;97175.16;;;20.07;60.47
51123;BME280;37162;41.724;13.346;2022-10-16T03:52:29;97175.16;;;20.07;60.65
51123;BME280;37162;41.724;13.346;2022-10-16T03:54:54;97163.94;;;19.99;60.75
51123;BME280;37162;41.724;13.346;2022-10-16T03:57:20;97169.75;;;20.07;61.02
51123;BME280;37162;41.724;13.346;2022-10-16T03:59:46;97165.09;;;20.03;61.20
51123;BME280;37162;41.724;13.346;2022-10-16T04:02:11;97168.38;;;20.05;61.25
51123;BME280;37162;41.724;13.346;2022-10-16T04:04:36;97170.50;;;20.03;61.51
51123;BME280;37162;41.724;13.346;2022-10-16T04:07:02;97175.66;;;20.04;61.38
51123;BME280;37162;41.724;13.346;2022-10-16T04:09:27;97157.63;;;19.93;61.22
51123;BME280;37162;41.724;13.346;2022-10-16T04:11:53;97171.56;;;20.02;60.83
51123;BME280;37162;41.724;13.346;2022-10-16T04:14:18;97162.78;;;19.95;60.86
51123;BME280;37162;41.724;13.346;2022-10-16T04:16:44;97179.66;;;20.02;60.68
51123;BME280;37162;41.724;13.346;2022-10-16T04:19:10;97183.97;;;20.03;60.61
51123;BME280;37162;41.724;13.346;2022-10-16T04:21:36;97194.75;;;20.03;60.56
51123;BME280;37162;41.724;13.346;2022-10-16T04:24:02;97188.56;;;20.02;60.61
51123;BME280;37162;41.724;13.346;2022-10-16T04:26:28;97191.25;;;20.02;60.45
51123;BME280;37162;41.724;13.346;2022-10-16T04:28:53;97191.25;;;20.02;60.49
51123;BME280;37162;41.724;13.346;2022-10-16T04:31:19;97193.13;;;20.02;60.50
51123;BME280;37162;41.724;13.346;2022-10-16T04:33:45;97203.91;;;20.02;60.41
51123;BME280;37162;41.724;13.346;2022-10-16T04:36:10;97203.91;;;20.02;60.44
51123;BME280;37162;41.724;13.346;2022-10-16T04:38:36;97203.91;;;20.02;60.52
51123;BME280;37162;41.724;13.346;2022-10-16T04:41:03;97207.44;;;20.02;60.37
51123;BME280;37162;41.724;13.346;2022-10-16T04:43:29;97202.28;;;20.01;60.19
51123;BME280;37162;41.724;13.346;2022-10-16T04:45:54;97213.06;;;20.01;60.21
51123;BME280;37162;41.724;13.346;2022-10-16T04:48:20;97205.22;;;19.99;60.28
51123;BME280;37162;41.724;13.346;2022-10-16T04:50:45;97212.25;;;20.00;60.31
51123;BME280;37162;41.724;13.346;2022-10-16T04:53:11;97213.28;;;19.99;60.18
51123;BME280;37162;41.724;13.346;2022-10-16T04:55:37;97217.88;;;19.99;60.21
51123;BME280;37162;41.724;13.346;2022-10-16T04:58:03;97220.56;;;19.99;60.00
51123;BME280;37162;41.724;13.346;2022-10-16T05:00:29;97218.94;;;19.98;60.14
51123;BME280;37162;41.724;13.346;2022-10-16T05:02:54;97215.44;;;19.97;60.09
51123;BME280;37162;41.724;13.346;2022-10-16T05:05:20;97211.91;;;19.97;60.11
51123;BME280;37162;41.724;13.346;2022-10-16T05:07:46;97222.44;;;19.98;60.06
51123;BME280;37162;41.724;13.346;2022-10-16T05:10:12;97211.00;;;19.91;59.83
51123;BME280;37162;41.724;13.346;2022-10-16T05:12:37;97221.88;;;19.96;59.83
51123;BME280;37162;41.724;13.346;2022-10-16T05:15:03;97217.56;;;19.95;59.88
51123;BME280;37162;41.724;13.346;2022-10-16T05:17:29;97218.59;;;19.94;59.88
51123;BME280;37162;41.724;13.346;2022-10-16T05:19:54;97220.47;;;19.94;59.84
51123;BME280;37162;41.724;13.346;2022-10-16T05:22:19;97217.22;;;19.91;59.92
51123;BME280;37162;41.724;13.346;2022-10-16T05:24:45;97221.78;;;19.91;60.12
51123;BME280;37162;41.724;13.346;2022-10-16T05:27:11;97216.41;;;19.91;59.98
51123;BME280;37162;41.724;13.346;2022-10-16T05:29:46;97226.38;;;19.90;59.99
51123;BME280;37162;41.724;13.346;2022-10-16T05:32:13;97223.69;;;19.90;59.98
51123;BME280;37162;41.724;13.346;2022-10-16T05:34:38;97231.78;;;19.90;60.17
51123;BME280;37162;41.724;13.346;2022-10-16T05:37:04;97222.81;;;19.90;60.15
51123;BME280;37162;41.724;13.346;2022-10-16T05:39:30;97221.19;;;19.89;60.31
51123;BME280;37162;41.724;13.346;2022-10-16T05:41:55;97236.31;;;19.90;60.44
51123;BME280;37162;41.724;13.346;2022-10-16T05:44:20;97240.66;;;19.91;60.45
51123;BME280;37162;41.724;13.346;2022-10-16T05:46:46;97233.63;;;19.90;60.62
51123;BME280;37162;41.724;13.346;2022-10-16T05:49:12;97235.50;;;19.89;60.62
51123;BME280;37162;41.724;13.346;2022-10-16T05:51:37;97237.16;;;19.90;60.65
51123;BME280;37162;41.724;13.346;2022-10-16T05:54:03;97251.47;;;19.91;60.25
51123;BME280;37162;41.724;13.346;2022-10-16T05:56:28;97249.56;;;19.91;60.26
51123;BME280;37162;41.724;13.346;2022-10-16T05:58:54;97254.72;;;19.93;60.12
51123;BME280;37162;41.724;13.346;2022-10-16T06:01:20;97249.56;;;19.91;60.04
51123;BME280;37162;41.724;13.346;2022-10-16T06:03:50;97255.88;;;19.97;59.85
51123;BME280;37162;41.724;13.346;2022-10-16T06:06:18;97248.25;;;19.94;59.85
51123;BME280;37162;41.724;13.346;2022-10-16T06:08:45;97250.84;;;20.01;59.76
51123;BME280;37162;41.724;13.346;2022-10-16T06:11:13;97257.88;;;20.02;59.53
51123;BME280;37162;41.724;13.346;2022-10-16T06:13:39;97259.50;;;20.03;59.70
51123;BME280;37162;41.724;13.346;2022-10-16T06:16:08;97263.81;;;20.04;59.64
51123;BME280;37162;41.724;13.346;2022-10-16T06:18:34;97260.91;;;20.05;59.62
51123;BME280;37162;41.724;13.346;2022-10-16T06:20:59;97272.50;;;20.06;59.62
51123;BME280;37162;41.724;13.346;2022-10-16T06:23:31;97274.97;;;20.07;59.69
51123;BME280;37162;41.724;13.346;2022-10-16T06:26:04;97269.31;;;20.09;59.60
51123;BME280;37162;41.724;13.346;2022-10-16T06:28:30;97275.31;;;20.11;59.64
51123;BME280;37162;41.724;13.346;2022-10-16T06:31:02;97274.00;;;20.13;59.59
51123;BME280;37162;41.724;13.346;2022-10-16T06:33:28;97278.09;;;20.16;59.77
51123;BME280;37162;41.724;13.346;2022-10-16T06:36:00;97280.53;;;20.17;59.78
51123;BME280;37162;41.724;13.346;2022-10-16T06:38:25;97290.31;;;20.19;59.40
51123;BME280;37162;41.724;13.346;2022-10-16T06:40:53;97289.22;;;20.20;58.92
51123;BME280;37162;41.724;13.346;2022-10-16T06:43:18;97297.06;;;20.21;58.71
51123;BME280;37162;41.724;13.346;2022-10-16T06:45:52;97295.09;;;20.16;57.01
51123;BME280;37162;41.724;13.346;2022-10-16T06:48:18;97296.59;;;20.24;57.74
51123;BME280;37162;41.724;13.346;2022-10-16T06:50:44;97299.78;;;20.21;57.32
51123;BME280;37162;41.724;13.346;2022-10-16T06:53:09;97306.91;;;20.27;57.15
51123;BME280;37162;41.724;13.346;2022-10-16T06:55:35;97306.09;;;20.27;55.77
51123;BME280;37162;41.724;13.346;2022-10-16T06:58:00;97307.50;;;20.29;55.05
51123;BME280;37162;41.724;13.346;2022-10-16T07:00:25;97309.69;;;20.32;54.38
51123;BME280;37162;41.724;13.346;2022-10-16T07:02:51;97310.28;;;20.34;54.39
51123;BME280;37162;41.724;13.346;2022-10-16T07:05:16;97314.16;;;20.38;54.24
51123;BME280;37162;41.724;13.346;2022-10-16T07:07:41;97312.81;;;20.41;54.79
51123;BME280;37162;41.724;13.346;2022-10-16T07:10:07;97317.31;;;20.47;55.73
51123;BME280;37162;41.724;13.346;2022-10-16T07:12:33;97332.78;;;20.52;56.46
51123;BME280;37162;41.724;13.346;2022-10-16T07:14:58;97322.00;;;20.52;56.39
51123;BME280;37162;41.724;13.346;2022-10-16T07:17:24;97330.19;;;20.57;56.41
51123;BME280;37162;41.724;13.346;2022-10-16T07:19:49;97328.84;;;20.59;56.92
51123;BME280;37162;41.724;13.346;2022-10-16T07:22:17;97316.69;;;20.57;57.41
51123;BME280;37162;41.724;13.346;2022-10-16T07:24:43;97324.34;;;20.65;57.17
51123;BME280;37162;41.724;13.346;2022-10-16T07:27:09;97331.41;;;20.66;56.41
51123;BME280;37162;41.724;13.346;2022-10-16T07:29:35;97338.19;;;20.68;57.35
51123;BME280;37162;41.724;13.346;2022-10-16T07:32:01;97332.88;;;20.74;57.90
51123;BME280;37162;41.724;13.346;2022-10-16T07:34:30;97337.00;;;20.76;57.92
51123;BME280;37162;41.724;13.346;2022-10-16T07:36:55;97345.19;;;20.81;57.92
51123;BME280;37162;41.724;13.346;2022-10-16T07:39:21;97344.72;;;20.84;58.15
51123;BME280;37162;41.724;13.346;2022-10-16T07:41:46;97345.28;;;20.86;58.39
51123;BME280;37162;41.724;13.346;2022-10-16T07:44:11;97350.69;;;20.86;56.93
51123;BME280;37162;41.724;13.346;2022-10-16T07:46:37;97354.53;;;20.90;57.84
51123;BME280;37162;41.724;13.346;2022-10-16T07:49:03;97357.78;;;20.92;57.32
51123;BME280;37162;41.724;13.346;2022-10-16T07:51:28;97353.53;;;20.97;57.48
51123;BME280;37162;41.724;13.346;2022-10-16T07:53:54;97355.78;;;21.00;57.63
51123;BME280;37162;41.724;13.346;2022-10-16T07:56:20;97360.66;;;21.03;56.83
51123;BME280;37162;41.724;13.346;2022-10-16T07:58:46;97349.63;;;21.04;57.14
51123;BME280;37162;41.724;13.346;2022-10-16T08:01:13;97363.78;;;21.11;57.53
51123;BME280;37162;41.724;13.346;2022-10-16T08:03:47;97363.31;;;21.14;57.49
51123;BME280;37162;41.724;13.346;2022-10-16T08:06:13;97366.56;;;21.16;57.66
51123;BME280;37162;41.724;13.346;2022-10-16T08:08:39;97361.75;;;21.18;57.78
51123;BME280;37162;41.724;13.346;2022-10-16T08:11:05;97367.72;;;21.21;57.57
51123;BME280;37162;41.724;13.346;2022-10-16T08:13:31;97365.03;;;21.21;57.12
51123;BME280;37162;41.724;13.346;2022-10-16T08:15:57;97354.22;;;21.21;57.39
51123;BME280;37162;41.724;13.346;2022-10-16T08:18:23;97363.81;;;21.28;57.10
51123;BME280;37162;41.724;13.346;2022-10-16T08:20:56;97366.03;;;21.31;57.19
51123;BME280;37162;41.724;13.346;2022-10-16T08:23:39;97368.50;;;21.33;56.40
51123;BME280;37162;41.724;13.346;2022-10-16T08:26:06;97363.19;;;21.38;57.21
51123;BME280;37162;41.724;13.346;2022-10-16T08:28:33;97370.47;;;21.37;57.03
51123;BME280;37162;41.724;13.346;2022-10-16T08:31:25;97368.19;;;21.46;57.47
51123;BME280;37162;41.724;13.346;2022-10-16T08:33:52;97366.03;;;21.48;57.06
51123;BME280;37162;41.724;13.346;2022-10-16T08:36:17;97364.72;;;21.51;57.04
51123;BME280;37162;41.724;13.346;2022-10-16T08:38:43;97364.22;;;21.54;57.39
51123;BME280;37162;41.724;13.346;2022-10-16T08:46:53;97364.88;;;21.61;56.55
51123;BME280;37162;41.724;13.346;2022-10-16T08:49:21;97369.53;;;21.65;56.82
51123;BME280;37162;41.724;13.346;2022-10-16T08:51:49;97373.41;;;21.69;56.88
51123;BME280;37162;41.724;13.346;2022-10-16T08:54:32;97370.44;;;21.71;56.91
51123;BME280;37162;41.724;13.346;2022-10-16T08:57:11;97364.22;;;21.71;56.88
51123;BME280;37162;41.724;13.346;2022-10-16T08:59:38;97366.97;;;21.76;56.79
51123;BME280;37162;41.724;13.346;2022-10-16T09:02:22;97355.56;;;21.74;56.88
51123;BME280;37162;41.724;13.346;2022-10-16T09:05:00;97374.34;;;21.80;56.92
51123;BME280;37162;41.724;13.346;2022-10-16T09:12:40;97373.59;;;21.85;57.00
51123;BME280;37162;41.724;13.346;2022-10-16T09:18:13;97380.97;;;21.89;56.88
51123;BME280;37162;41.724;13.346;2022-10-16T09:23:37;97382.13;;;21.93;56.91
51123;BME280;37162;41.724;13.346;2022-10-16T09:26:04;97387.00;;;21.97;56.80
51123;BME280;37162;41.724;13.346;2022-10-16T09:28:30;97390.31;;;21.99;56.90
51123;BME280;37162;41.724;13.346;2022-10-16T09:30:56;97391.13;;;21.99;57.03
51123;BME280;37162;41.724;13.346;2022-10-16T09:33:25;97393.00;;;21.99;56.92
51123;BME280;37162;41.724;13.346;2022-10-16T09:35:54;97392.47;;;22.02;56.78
51123;BME280;37162;41.724;13.346;2022-10-16T09:38:29;97393.06;;;22.04;56.94
51123;BME280;37162;41.724;13.346;2022-10-16T09:40:57;97403.63;;;22.05;56.84
51123;BME280;37162;41.724;13.346;2022-10-16T09:43:38;97405.84;;;22.08;56.85
51123;BME280;37162;41.724;13.346;2022-10-16T09:46:07;97382.75;;;22.01;56.63
51123;BME280;37162;41.724;13.346;2022-10-16T09:48:42;97408.41;;;22.15;57.04
51123;BME280;37162;41.724;13.346;2022-10-16T09:51:29;97414.63;;;22.15;56.86
51123;BME280;37162;41.724;13.346;2022-10-16T09:56:28;97413.31;;;22.18;56.69
51123;BME280;37162;41.724;13.346;2022-10-16T09:58:56;97411.16;;;22.20;56.97
51123;BME280;37162;41.724;13.346;2022-10-16T10:01:27;97413.66;;;22.22;56.57
51123;BME280;37162;41.724;13.346;2022-10-16T10:03:56;97405.25;;;22.23;56.58
51123;BME280;37162;41.724;13.346;2022-10-16T10:06:40;97411.22;;;22.25;56.90
51123;BME280;37162;41.724;13.346;2022-10-16T10:09:27;97408.28;;;22.27;56.92
51123;BME280;37162;41.724;13.346;2022-10-16T10:11:59;97399.91;;;22.28;56.58
51123;BME280;37162;41.724;13.346;2022-10-16T10:14:46;97414.84;;;22.31;56.76
51123;BME280;37162;41.724;13.346;2022-10-16T10:19:57;97402.44;;;22.35;56.30
51123;BME280;37162;41.724;13.346;2022-10-16T10:44:01;97389.91;;;22.51;56.42
51123;BME280;37162;41.724;13.346;2022-10-16T10:46:35;97394.81;;;22.54;56.20
51123;BME280;37162;41.724;13.346;2022-10-16T11:02:59;97384.59;;;22.61;56.09
51123;BME280;37162;41.724;13.346;2022-10-16T11:08:02;97379.72;;;22.63;55.84
51123;BME280;37162;41.724;13.346;2022-10-16T11:10:54;97377.88;;;22.63;55.90
51123;BME280;37162;41.724;13.346;2022-10-16T11:13:42;97378.69;;;22.64;56.18
51123;BME280;37162;41.724;13.346;2022-10-16T11:16:17;97375.72;;;22.65;55.81
51123;BME280;37162;41.724;13.346;2022-10-16T11:21:42;97366.25;;;22.68;55.75
51123;BME280;37162;41.724;13.346;2022-10-16T11:24:20;97353.72;;;22.62;56.10
51123;BME280;37162;41.724;13.346;2022-10-16T11:26:49;97337.47;;;22.62;55.91
51123;BME280;37162;41.724;13.346;2022-10-16T11:29:27;97368.22;;;22.73;55.50
51123;BME280;37162;41.724;13.346;2022-10-16T11:32:04;97364.66;;;22.72;55.78
51123;BME280;37162;41.724;13.346;2022-10-16T11:34:36;97352.19;;;22.71;55.72
51123;BME280;37162;41.724;13.346;2022-10-16T11:39:30;97369.53;;;22.70;55.75
51123;BME280;37162;41.724;13.346;2022-10-16T11:44:55;97354.84;;;22.66;55.63
51123;BME280;37162;41.724;13.346;2022-10-16T11:47:51;97353.78;;;22.67;55.25
51123;BME280;37162;41.724;13.346;2022-10-16T11:56:00;97347.81;;;22.65;55.52
51123;BME280;37162;41.724;13.346;2022-10-16T12:04:04;97342.06;;;22.61;55.36
51123;BME280;37162;41.724;13.346;2022-10-16T12:06:39;97349.38;;;22.61;55.04
51123;BME280;37162;41.724;13.346;2022-10-16T12:09:42;97344.22;;;22.59;55.12
51123;BME280;37162;41.724;13.346;2022-10-16T12:12:01;97332.81;;;22.57;55.51
51123;BME280;37162;41.724;13.346;2022-10-16T12:17:20;97339.56;;;22.55;55.17
51123;BME280;37162;41.724;13.346;2022-10-16T12:20:19;97340.34;;;22.50;55.12
51123;BME280;37162;41.724;13.346;2022-10-16T12:22:50;97342.19;;;22.44;55.05
51123;BME280;37162;41.724;13.346;2022-10-16T12:25:32;97348.34;;;22.40;54.95
51123;BME280;37162;41.724;13.346;2022-10-16T12:30:25;97341.44;;;22.27;55.81
51123;BME280;37162;41.724;13.346;2022-10-16T12:33:03;97337.59;;;22.23;55.97
51123;BME280;37162;41.724;13.346;2022-10-16T12:35:33;97340.25;;;22.18;56.01
51123;BME280;37162;41.724;13.346;2022-10-16T12:38:19;97335.59;;;22.13;56.26
51123;BME280;37162;41.724;13.346;2022-10-16T12:40:53;97331.09;;;22.02;56.26
51123;BME280;37162;41.724;13.346;2022-10-16T12:45:45;97321.50;;;21.94;56.72
51123;BME280;37162;41.724;13.346;2022-10-16T12:48:20;97334.78;;;21.96;56.55
51123;BME280;37162;41.724;13.346;2022-10-16T12:50:46;97339.91;;;21.92;56.61
51123;BME280;37162;41.724;13.346;2022-10-16T12:53:21;97334.16;;;21.89;56.97
51123;BME280;37162;41.724;13.346;2022-10-16T13:01:45;97336.75;;;21.79;57.07
51123;BME280;37162;41.724;13.346;2022-10-16T13:07:16;97335.28;;;21.71;57.58
51123;BME280;37162;41.724;13.346;2022-10-16T13:15:16;97338.41;;;21.63;57.54
51123;BME280;37162;41.724;13.346;2022-10-16T13:17:51;97341.63;;;21.60;57.92
51123;BME280;37162;41.724;13.346;2022-10-16T13:23:20;97328.19;;;21.48;58.01
51123;BME280;37162;41.724;13.346;2022-10-16T13:28:17;97339.59;;;21.50;58.22
51123;BME280;37162;41.724;13.346;2022-10-16T13:30:52;97339.81;;;21.49;58.33
51123;BME280;37162;41.724;13.346;2022-10-16T13:33:23;97347.91;;;21.49;58.25
51123;BME280;37162;41.724;13.346;2022-10-16T13:35:51;97341.97;;;21.47;58.33
51123;BME280;37162;41.724;13.346;2022-10-16T13:38:21;97344.88;;;21.45;58.18
51123;BME280;37162;41.724;13.346;2022-10-16T13:40:54;97343.50;;;21.42;58.37
51123;BME280;37162;41.724;13.346;2022-10-16T13:43:23;97336.97;;;21.38;58.66
51123;BME280;37162;41.724;13.346;2022-10-16T13:46:01;97336.97;;;21.38;58.68
51123;BME280;37162;41.724;13.346;2022-10-16T13:48:29;97340.75;;;21.37;58.70
51123;BME280;37162;41.724;13.346;2022-10-16T13:51:03;97337.22;;;21.37;58.84
51123;BME280;37162;41.724;13.346;2022-10-16T13:53:33;97339.91;;;21.37;58.54
51123;BME280;37162;41.724;13.346;2022-10-16T13:56:00;97340.16;;;21.35;58.52
51123;BME280;37162;41.724;13.346;2022-10-16T13:58:26;97338.78;;;21.33;57.91
51123;BME280;37162;41.724;13.346;2022-10-16T14:00:57;97334.19;;;21.33;58.96
51123;BME280;37162;41.724;13.346;2022-10-16T14:03:25;97333.38;;;21.33;58.85
51123;BME280;37162;41.724;13.346;2022-10-16T14:05:54;97339.00;;;21.31;59.19
51123;BME280;37162;41.724;13.346;2022-10-16T14:08:21;97333.00;;;21.29;59.07
51123;BME280;37162;41.724;13.346;2022-10-16T14:10:49;97335.72;;;21.29;58.92
51123;BME280;37162;41.724;13.346;2022-10-16T14:13:19;97333.25;;;21.28;59.20
51123;BME280;37162;41.724;13.346;2022-10-16T14:15:48;97335.16;;;21.27;58.91
51123;BME280;37162;41.724;13.346;2022-10-16T14:18:21;97327.25;;;21.26;59.35
51123;BME280;37162;41.724;13.346;2022-10-16T14:20:48;97332.94;;;21.24;59.65
51123;BME280;37162;41.724;13.346;2022-10-16T14:23:23;97335.63;;;21.24;59.82
51123;BME280;37162;41.724;13.346;2022-10-16T14:25:53;97337.53;;;21.24;59.58
51123;BME280;37162;41.724;13.346;2022-10-16T14:28:21;97337.78;;;21.22;59.74
51123;BME280;37162;41.724;13.346;2022-10-16T14:30:54;97344.22;;;21.21;59.77
51123;BME280;37162;41.724;13.346;2022-10-16T14:36:11;97336.38;;;21.19;59.77
51123;BME280;37162;41.724;13.346;2022-10-16T14:38:38;97340.13;;;21.18;59.93
51123;BME280;37162;41.724;13.346;2022-10-16T14:41:05;97333.00;;;21.12;59.88
51123;BME280;37162;41.724;13.346;2022-10-16T14:43:42;97335.69;;;21.12;59.94
51123;BME280;37162;41.724;13.346;2022-10-16T14:46:13;97340.88;;;21.14;59.99
51123;BME280;37162;41.724;13.346;2022-10-16T14:48:48;97333.75;;;21.08;60.02
51123;BME280;37162;41.724;13.346;2022-10-16T14:51:17;97353.06;;;21.16;60.03
51123;BME280;37162;41.724;13.346;2022-10-16T14:53:44;97348.47;;;21.17;60.06
51123;BME280;37162;41.724;13.346;2022-10-16T14:56:20;97347.66;;;21.16;60.28
51123;BME280;37162;41.724;13.346;2022-10-16T14:58:46;97348.97;;;21.14;59.76
51123;BME280;37162;41.724;13.346;2022-10-16T15:01:12;97339.81;;;21.15;59.81
51123;BME280;37162;41.724;13.346;2022-10-16T15:03:38;97352.25;;;21.16;59.76
51123;BME280;37162;41.724;13.346;2022-10-16T15:06:10;97349.53;;;21.16;59.99
51123;BME280;37162;41.724;13.346;2022-10-16T15:08:36;97346.84;;;21.16;59.57
51123;BME280;37162;41.724;13.346;2022-10-16T15:11:01;97347.91;;;21.15;58.89